KOCF/OCF METAR and TAF weather

Enter ICAO airport designator
Station Type Date Time Source
KOCF METAR 2019/08/17 10:38 UTC NOAA

KOCF 171038Z AUTO 20008KT 10SM -RA FEW008 BKN013 OVC049 24/23 A3005 RMK AO2 RAB05 P0000 $


Station Type Date Time Source
KOCF Decoded METAR 2019/08/17 10:38 UTC NOAA

Station name not available
Aug 17, 2019 - 06:38 AM EDT / 2019.08.17 1038 UTC
Wind: from the SSW (200 degrees) at 9 MPH (8 KT):0
Visibility: 10 mile(s):0
Sky conditions: overcast
Weather: light rain
Precipitation last hour: A trace
Temperature: 75 F (24 C)
Dew Point: 73 F (23 C)
Relative Humidity: 94%
Pressure (altimeter): 30.05 in. Hg (1017 hPa)
ob: KOCF 171038Z AUTO 20008KT 10SM -RA FEW008 BKN013 OVC049 24/23 A3005 RMK AO2 RAB05 P0000
cycle: 10

Station Type Date Time Source
KOCF TAF UTC NOAA

Error!

Example: see airport list